createdAt,value
2019-06-27T00:02:15.853Z,86.34
2019-06-27T00:04:46.853Z,86.88
2019-06-27T00:07:17.797Z,86.74
2019-06-27T00:09:49.164Z,86.65
2019-06-27T00:12:20.810Z,87.08
2019-06-27T00:14:52.176Z,87.44
2019-06-27T00:17:23.291Z,87.89
2019-06-27T00:19:54.964Z,87.82
2019-06-27T00:22:25.960Z,87.15
2019-06-27T00:24:57.085Z,87.15
2019-06-27T00:27:28.105Z,87.00
2019-06-27T00:29:59.127Z,86.65
2019-06-27T00:32:30.078Z,86.85
2019-06-27T00:35:01.162Z,87.07
2019-06-27T00:37:32.538Z,87.39
2019-06-27T00:40:03.530Z,87.30
2019-06-27T00:42:34.605Z,87.44
2019-06-27T00:45:06.488Z,87.47
2019-06-27T00:47:37.532Z,87.52
2019-06-27T00:50:09.699Z,87.83
2019-06-27T00:52:41.027Z,87.97
2019-06-27T00:55:12.771Z,88.02
2019-06-27T00:57:43.982Z,88.04
2019-06-27T01:00:16.854Z,87.94
2019-06-27T01:02:48.319Z,87.56
2019-06-27T01:05:19.695Z,87.31
2019-06-27T01:07:51.093Z,88.17
2019-06-27T01:10:22.745Z,88.08
2019-06-27T01:12:54.074Z,87.77
2019-06-27T01:15:25.262Z,87.71
2019-06-27T01:17:56.305Z,87.76
2019-06-27T01:20:27.785Z,87.44
2019-06-27T01:22:59.270Z,87.36
2019-06-27T01:25:31.126Z,87.42
2019-06-27T01:28:03.046Z,87.43
2019-06-27T01:30:34.075Z,87.14
2019-06-27T01:33:05.270Z,87.30
2019-06-27T01:35:37.214Z,87.56
2019-06-27T01:38:08.460Z,87.35
2019-06-27T01:40:39.986Z,88.11
2019-06-27T01:43:11.173Z,88.56
2019-06-27T01:45:47.877Z,89.07
2019-06-27T01:48:19.019Z,89.61
2019-06-27T01:50:50.495Z,89.98
2019-06-27T01:53:22.162Z,90.34
2019-06-27T01:55:53.793Z,90.43
2019-06-27T01:58:24.775Z,90.03
2019-06-27T02:00:56.577Z,90.49
2019-06-27T02:03:28.099Z,90.37
2019-06-27T02:05:59.850Z,90.39
2019-06-27T02:08:31.446Z,90.45
2019-06-27T02:11:03.115Z,89.96
2019-06-27T02:13:34.831Z,90.05
2019-06-27T02:16:06.368Z,89.95
2019-06-27T02:18:38.655Z,89.83
2019-06-27T02:21:09.889Z,90.22
2019-06-27T02:23:40.950Z,90.36
2019-06-27T02:26:12.268Z,90.28
2019-06-27T02:28:43.514Z,90.04
2019-06-27T02:31:14.714Z,89.37
2019-06-27T02:33:45.781Z,90.07
2019-06-27T02:36:16.662Z,90.75
2019-06-27T02:38:47.572Z,90.50
2019-06-27T02:41:18.618Z,90.63
2019-06-27T02:43:49.462Z,90.75
2019-06-27T02:46:21.661Z,91.06
2019-06-27T02:48:53.517Z,91.10
2019-06-27T02:51:25.121Z,90.76
2019-06-27T02:53:56.576Z,90.93
2019-06-27T02:56:27.595Z,91.33
2019-06-27T02:58:59.076Z,91.70
2019-06-27T03:01:30.250Z,91.39
2019-06-27T03:04:02.260Z,91.66
2019-06-27T03:06:33.468Z,92.06
2019-06-27T03:09:05.467Z,92.18
2019-06-27T03:11:36.684Z,92.54
2019-06-27T03:14:07.787Z,92.75
2019-06-27T03:16:39.105Z,92.80
2019-06-27T03:19:10.422Z,92.33
2019-06-27T03:21:41.738Z,92.37
2019-06-27T03:24:12.868Z,92.30
2019-06-27T03:26:44.143Z,92.52
2019-06-27T03:29:19.909Z,92.68
2019-06-27T03:31:48.073Z,92.76
2019-06-27T03:34:19.286Z,92.62
2019-06-27T03:36:50.512Z,92.43
2019-06-27T03:39:21.679Z,92.00
2019-06-27T03:41:53.429Z,91.87
2019-06-27T03:44:24.614Z,91.13
2019-06-27T03:46:55.746Z,91.32
2019-06-27T03:49:26.732Z,91.96
2019-06-27T03:51:57.985Z,91.57
2019-06-27T03:54:29.106Z,91.26
2019-06-27T03:57:00.187Z,91.01
2019-06-27T03:59:31.423Z,90.34
2019-06-27T04:02:02.446Z,89.76
2019-06-27T04:04:33.642Z,89.96
2019-06-27T04:07:04.963Z,89.36
2019-06-27T04:09:36.189Z,88.90
2019-06-27T04:12:07.339Z,88.48
2019-06-27T04:14:38.280Z,88.01
2019-06-27T04:17:09.847Z,87.79
2019-06-27T04:19:41.117Z,88.09
2019-06-27T04:22:17.110Z,88.71
2019-06-27T04:24:45.339Z,89.62
2019-06-27T04:27:16.602Z,89.29
2019-06-27T04:29:47.946Z,90.10
2019-06-27T04:32:19.207Z,90.23
2019-06-27T04:34:50.041Z,90.24
2019-06-27T04:37:21.186Z,89.34
2019-06-27T04:39:52.041Z,88.61
2019-06-27T04:42:23.057Z,87.85
2019-06-27T04:44:54.442Z,87.45
2019-06-27T04:47:25.805Z,86.94
2019-06-27T04:49:56.735Z,85.47
2019-06-27T04:52:28.170Z,84.24
2019-06-27T04:55:03.153Z,83.11
2019-06-27T04:57:32.546Z,81.98
2019-06-27T05:00:03.981Z,81.07
2019-06-27T05:02:35.432Z,80.73
2019-06-27T05:05:06.918Z,80.12
2019-06-27T05:07:39.339Z,79.51
2019-06-27T05:10:10.581Z,78.59
2019-06-27T05:12:41.925Z,77.92
2019-06-27T05:15:13.135Z,77.92
2019-06-27T05:17:44.271Z,78.15
2019-06-27T05:20:15.465Z,78.23
2019-06-27T05:22:46.691Z,77.85
2019-06-27T05:25:17.994Z,76.03
2019-06-27T05:27:49.461Z,73.11
2019-06-27T05:30:20.632Z,70.33
2019-06-27T05:32:51.936Z,69.58
2019-06-27T05:35:23.379Z,66.47
2019-06-27T05:37:54.852Z,63.20
2019-06-27T05:40:26.222Z,64.36
2019-06-27T05:42:57.269Z,62.39
2019-06-27T05:45:28.528Z,60.47
2019-06-27T05:47:59.650Z,63.33
2019-06-27T05:50:30.849Z,63.33
2019-06-27T05:53:02.149Z,61.45
2019-06-27T05:55:33.332Z,58.31
2019-06-27T05:58:05.398Z,55.39
2019-06-27T06:00:36.576Z,54.53
2019-06-27T06:03:07.993Z,56.21
2019-06-27T06:05:39.073Z,55.14
2019-06-27T06:08:10.199Z,54.22
2019-06-27T06:10:41.531Z,52.67
2019-06-27T06:13:12.687Z,51.54
2019-06-27T06:15:43.830Z,50.83
2019-06-27T06:18:15.399Z,48.81
2019-06-27T06:20:46.597Z,50.32
2019-06-27T06:23:18.084Z,50.91
2019-06-27T06:25:49.172Z,52.97
2019-06-27T06:28:20.328Z,50.70
2019-06-27T06:30:51.503Z,48.36
2019-06-27T06:33:22.554Z,48.04
2019-06-27T06:35:53.603Z,50.68
2019-06-27T06:38:25.012Z,50.69
2019-06-27T06:40:56.288Z,52.47
2019-06-27T06:43:27.527Z,54.72
2019-06-27T06:45:58.429Z,56.59
2019-06-27T06:48:29.799Z,55.42
2019-06-27T06:51:00.981Z,53.88
2019-06-27T06:53:32.454Z,51.24
2019-06-27T06:56:03.638Z,48.88
2019-06-27T06:58:34.936Z,46.95
2019-06-27T07:01:05.953Z,47.79
2019-06-27T07:03:36.959Z,48.95
2019-06-27T07:06:08.083Z,47.83
2019-06-27T07:08:39.195Z,47.68
2019-06-27T07:11:11.446Z,45.90
2019-06-27T07:13:42.617Z,44.61
2019-06-27T07:16:13.518Z,44.10
2019-06-27T07:18:44.759Z,46.28
2019-06-27T07:21:16.016Z,45.56
2019-06-27T07:23:47.421Z,44.49
2019-06-27T07:26:22.067Z,43.33
2019-06-27T07:28:51.948Z,41.52
2019-06-27T07:31:23.523Z,43.67
2019-06-27T07:33:55.012Z,44.20
2019-06-27T07:36:26.608Z,46.84
2019-06-27T07:38:57.958Z,45.88
2019-06-27T07:41:29.776Z,44.22
2019-06-27T07:44:01.331Z,43.57
2019-06-27T07:46:32.707Z,44.03
2019-06-27T07:49:04.394Z,45.56
2019-06-27T07:51:36.357Z,46.59
2019-06-27T07:54:08.117Z,46.16
2019-06-27T07:56:39.344Z,46.92
2019-06-27T07:59:10.957Z,46.95
2019-06-27T08:01:42.466Z,45.03
2019-06-27T08:04:13.603Z,48.63
2019-06-27T08:06:44.525Z,45.14
2019-06-27T08:09:15.604Z,42.75
2019-06-27T08:11:47.016Z,41.48
2019-06-27T08:14:18.171Z,39.65
2019-06-27T08:16:49.740Z,41.51
2019-06-27T08:19:21.367Z,40.91
2019-06-27T08:21:52.541Z,39.70
2019-06-27T08:24:24.316Z,38.43
2019-06-27T08:26:55.540Z,38.82
2019-06-27T08:29:26.629Z,40.43
2019-06-27T08:31:57.745Z,38.50
2019-06-27T08:34:28.888Z,39.16
2019-06-27T08:37:00.100Z,38.84
2019-06-27T08:39:31.504Z,37.66
2019-06-27T08:42:02.411Z,37.77
2019-06-27T08:44:33.567Z,38.61
2019-06-27T08:47:04.544Z,39.24
2019-06-27T08:49:36.192Z,38.50
2019-06-27T08:52:07.657Z,39.56
2019-06-27T08:54:38.901Z,39.72
2019-06-27T08:57:10.045Z,38.99
2019-06-27T08:59:41.061Z,37.95
2019-06-27T09:02:11.967Z,36.96
2019-06-27T09:04:43.502Z,36.40
2019-06-27T09:07:14.763Z,35.69
2019-06-27T09:09:45.832Z,38.58
2019-06-27T09:12:17.166Z,37.69
2019-06-27T09:14:48.390Z,36.69
2019-06-27T09:17:19.390Z,37.63
2019-06-27T09:19:50.328Z,36.88
2019-06-27T09:22:21.454Z,35.82
2019-06-27T09:24:52.836Z,35.40
2019-06-27T09:27:23.892Z,33.98
2019-06-27T09:29:54.884Z,33.25
2019-06-27T09:32:26.529Z,33.31
2019-06-27T09:34:57.595Z,32.83
2019-06-27T09:37:29.960Z,32.64
2019-06-27T09:40:01.300Z,33.76
2019-06-27T09:42:32.363Z,35.88
2019-06-27T09:45:03.869Z,35.79
2019-06-27T09:47:34.856Z,35.51
2019-06-27T09:50:06.183Z,35.26
2019-06-27T09:52:37.101Z,35.50
2019-06-27T09:55:09.565Z,35.37
2019-06-27T09:57:40.653Z,36.74
2019-06-27T10:00:12.803Z,35.42
2019-06-27T10:02:43.698Z,32.03
2019-06-27T10:05:15.363Z,33.67
2019-06-27T10:07:46.317Z,32.67
2019-06-27T10:10:17.799Z,33.25
2019-06-27T10:12:48.919Z,31.22
2019-06-27T10:15:20.446Z,34.80
2019-06-27T10:17:51.730Z,34.10
2019-06-27T10:20:23.071Z,33.31
2019-06-27T10:22:54.337Z,31.30
2019-06-27T10:25:25.896Z,33.00
2019-06-27T10:27:57.005Z,33.09
2019-06-27T10:30:28.289Z,33.54
2019-06-27T10:33:00.504Z,32.35
2019-06-27T10:35:32.029Z,33.24
2019-06-27T10:38:03.212Z,34.79
2019-06-27T10:40:34.635Z,32.82
2019-06-27T10:43:05.754Z,33.06
2019-06-27T10:45:36.964Z,33.76
2019-06-27T10:48:07.904Z,33.94
2019-06-27T10:50:39.100Z,32.68
2019-06-27T10:53:10.413Z,34.92
2019-06-27T10:55:42.107Z,35.12
2019-06-27T10:58:13.236Z,35.88
2019-06-27T11:00:44.457Z,36.23
2019-06-27T11:03:16.536Z,33.87
2019-06-27T11:05:48.037Z,33.47
2019-06-27T11:08:19.482Z,33.58
2019-06-27T11:10:50.948Z,33.79
2019-06-27T11:13:23.122Z,32.96
2019-06-27T11:15:54.690Z,34.18
2019-06-27T11:18:25.802Z,33.81
2019-06-27T11:20:56.929Z,34.80
2019-06-27T11:23:27.966Z,34.54
2019-06-27T11:25:58.998Z,34.75
2019-06-27T11:28:30.229Z,35.51
2019-06-27T11:31:01.357Z,34.66
2019-06-27T11:33:33.320Z,35.78
2019-06-27T11:36:04.549Z,36.50
2019-06-27T11:38:35.862Z,36.89
2019-06-27T11:41:07.455Z,37.20
2019-06-27T11:43:38.922Z,36.83
2019-06-27T11:46:10.263Z,37.64
2019-06-27T11:48:41.238Z,38.47
2019-06-27T11:51:12.701Z,38.61
2019-06-27T11:53:44.370Z,38.44
2019-06-27T11:56:16.160Z,37.38
2019-06-27T11:58:47.547Z,35.01
2019-06-27T12:01:19.379Z,36.92
2019-06-27T12:03:50.991Z,36.59
2019-06-27T12:06:22.425Z,37.13
2019-06-27T12:08:53.408Z,36.60
2019-06-27T12:11:24.412Z,37.92
2019-06-27T12:13:55.667Z,39.48
2019-06-27T12:16:27.114Z,40.29
2019-06-27T12:18:58.443Z,39.99
2019-06-27T12:21:29.525Z,40.79
2019-06-27T12:24:00.748Z,37.94
2019-06-27T12:26:32.318Z,38.78
2019-06-27T12:29:03.765Z,37.44
2019-06-27T12:31:35.190Z,38.90
2019-06-27T12:34:07.721Z,36.78
2019-06-27T12:36:39.980Z,38.41
2019-06-27T12:39:11.125Z,38.74
2019-06-27T12:41:42.338Z,38.57
2019-06-27T12:44:13.496Z,37.09
2019-06-27T12:46:44.938Z,38.25
2019-06-27T12:49:16.144Z,39.59
2019-06-27T12:51:48.688Z,38.46
2019-06-27T12:54:20.127Z,38.85
2019-06-27T12:56:51.589Z,37.67
2019-06-27T12:59:22.990Z,36.93
2019-06-27T13:01:55.269Z,38.10
2019-06-27T13:04:26.459Z,37.41
2019-06-27T13:06:58.660Z,38.30
2019-06-27T13:09:29.753Z,38.54
2019-06-27T13:12:00.916Z,38.21
2019-06-27T13:14:31.831Z,39.38
2019-06-27T13:17:03.305Z,40.21
2019-06-27T13:19:34.731Z,39.85
2019-06-27T13:22:05.778Z,40.05
2019-06-27T13:24:36.933Z,39.40
2019-06-27T13:27:08.150Z,39.25
2019-06-27T13:29:39.598Z,39.70
2019-06-27T13:32:10.891Z,39.79
2019-06-27T13:34:43.664Z,38.76
2019-06-27T13:37:14.761Z,40.32
2019-06-27T13:39:45.850Z,40.99
2019-06-27T13:42:16.879Z,39.97
2019-06-27T13:44:47.896Z,40.10
2019-06-27T13:47:20.328Z,41.24
2019-06-27T13:49:51.281Z,41.30
2019-06-27T13:52:22.323Z,41.71
2019-06-27T13:54:53.281Z,39.71
2019-06-27T13:57:24.399Z,40.46
2019-06-27T13:59:55.460Z,41.47
2019-06-27T14:02:26.437Z,40.86
2019-06-27T14:04:58.031Z,40.86
2019-06-27T14:07:29.153Z,41.50
2019-06-27T14:10:00.168Z,39.56
2019-06-27T14:12:31.805Z,40.18
2019-06-27T14:15:02.665Z,40.28
2019-06-27T14:17:33.903Z,40.77
2019-06-27T14:20:05.439Z,40.93
2019-06-27T14:22:37.109Z,40.73
2019-06-27T14:25:08.175Z,41.05
2019-06-27T14:27:39.210Z,41.29
2019-06-27T14:30:10.763Z,41.02
2019-06-27T14:32:42.047Z,39.61
2019-06-27T14:35:15.727Z,39.47
2019-06-27T14:37:50.352Z,40.48
2019-06-27T14:40:21.578Z,40.76
2019-06-27T14:42:52.629Z,41.11
2019-06-27T14:45:25.057Z,40.36
2019-06-27T14:47:56.601Z,41.10
2019-06-27T14:50:28.291Z,41.52
2019-06-27T14:53:00.149Z,41.61
2019-06-27T14:55:31.717Z,41.72
2019-06-27T14:58:03.033Z,41.08
2019-06-27T15:00:34.262Z,41.66
2019-06-27T15:03:05.429Z,41.57
2019-06-27T15:05:36.463Z,41.92
2019-06-27T15:08:07.584Z,41.27
2019-06-27T15:10:38.456Z,41.80
2019-06-27T15:13:09.759Z,41.67
2019-06-27T15:15:40.983Z,41.37
2019-06-27T15:18:12.214Z,40.31
2019-06-27T15:20:43.311Z,40.11
2019-06-27T15:23:14.569Z,40.69
2019-06-27T15:25:45.448Z,40.37
2019-06-27T15:28:16.505Z,40.60
2019-06-27T15:30:47.840Z,40.44
2019-06-27T15:33:19.104Z,40.39
2019-06-27T15:35:52.260Z,40.08
2019-06-27T15:38:23.106Z,40.07
2019-06-27T15:40:55.559Z,40.56
2019-06-27T15:43:27.260Z,40.03
2019-06-27T15:45:58.288Z,40.30
2019-06-27T15:48:29.238Z,40.69
2019-06-27T15:51:00.511Z,40.51
2019-06-27T15:53:31.781Z,40.75
2019-06-27T15:56:02.686Z,41.17
2019-06-27T15:58:33.954Z,42.02
2019-06-27T16:01:05.038Z,42.67
2019-06-27T16:03:36.319Z,43.28
2019-06-27T16:06:09.710Z,43.36
2019-06-27T16:08:40.410Z,43.75
2019-06-27T16:11:13.971Z,44.30
2019-06-27T16:13:45.191Z,43.79
2019-06-27T16:16:16.117Z,44.83
2019-06-27T16:18:47.351Z,45.24
2019-06-27T16:21:18.694Z,44.59
2019-06-27T16:23:50.189Z,44.59
2019-06-27T16:26:21.187Z,44.79
2019-06-27T16:28:54.295Z,44.60
2019-06-27T16:31:25.513Z,44.44
2019-06-27T16:33:56.843Z,45.04
2019-06-27T16:36:29.268Z,45.01
2019-06-27T16:39:00.456Z,46.10
2019-06-27T16:41:33.108Z,45.86
2019-06-27T16:44:04.699Z,45.73
2019-06-27T16:46:35.845Z,45.84
2019-06-27T16:49:07.155Z,46.42
2019-06-27T16:51:38.443Z,45.90
2019-06-27T16:54:09.657Z,45.76
2019-06-27T16:56:40.971Z,45.90
2019-06-27T16:59:12.544Z,45.93
2019-06-27T17:01:43.621Z,45.93
2019-06-27T17:04:14.674Z,46.02
2019-06-27T17:06:45.913Z,46.31
2019-06-27T17:09:17.258Z,46.46
2019-06-27T17:11:48.474Z,47.38
2019-06-27T17:14:19.849Z,46.85
2019-06-27T17:16:51.068Z,46.94
2019-06-27T17:19:22.266Z,46.90
2019-06-27T17:21:53.376Z,47.62
2019-06-27T17:24:24.376Z,48.24
2019-06-27T17:26:55.553Z,47.34
2019-06-27T17:29:26.883Z,47.27
2019-06-27T17:31:57.957Z,46.85
2019-06-27T17:34:28.822Z,46.75
2019-06-27T17:36:59.741Z,47.05
2019-06-27T17:39:30.934Z,47.18
2019-06-27T17:42:01.851Z,46.35
2019-06-27T17:44:32.803Z,46.43
2019-06-27T17:47:03.720Z,46.38
2019-06-27T17:49:34.820Z,46.06
2019-06-27T17:52:06.098Z,46.47
2019-06-27T17:54:38.540Z,45.67
2019-06-27T17:57:09.753Z,46.23
2019-06-27T17:59:41.310Z,46.91
2019-06-27T18:02:12.455Z,46.52
2019-06-27T18:04:46.107Z,47.04
2019-06-27T18:07:17.545Z,47.71
2019-06-27T18:09:49.256Z,48.12
2019-06-27T18:12:21.934Z,48.33
2019-06-27T18:14:53.324Z,49.25
2019-06-27T18:17:32.857Z,49.13
2019-06-27T18:19:57.540Z,49.31
2019-06-27T18:22:28.568Z,50.26
2019-06-27T18:24:59.817Z,50.80
2019-06-27T18:27:31.005Z,51.25
2019-06-27T18:30:02.019Z,51.27
2019-06-27T18:32:34.039Z,51.39
2019-06-27T18:35:05.667Z,51.76
2019-06-27T18:37:36.845Z,52.22
2019-06-27T18:40:08.283Z,52.06
2019-06-27T18:42:39.307Z,51.90
2019-06-27T18:45:10.631Z,52.41
2019-06-27T18:47:41.610Z,52.72
2019-06-27T18:50:12.927Z,52.87
2019-06-27T18:52:43.835Z,53.77
2019-06-27T18:55:15.112Z,54.26
2019-06-27T18:57:46.093Z,54.07
2019-06-27T19:00:17.726Z,54.50
2019-06-27T19:02:49.187Z,55.02
2019-06-27T19:05:20.253Z,55.18
2019-06-27T19:07:51.456Z,55.35
2019-06-27T19:10:23.036Z,55.87
2019-06-27T19:12:54.269Z,55.77
2019-06-27T19:15:25.234Z,56.73
2019-06-27T19:17:56.119Z,57.03
2019-06-27T19:20:41.748Z,58.06
2019-06-27T19:23:49.741Z,58.50
2019-06-27T19:26:20.842Z,58.87
2019-06-27T19:28:51.880Z,59.72
2019-06-27T19:31:22.938Z,60.57
2019-06-27T19:33:54.135Z,60.56
2019-06-27T19:36:25.076Z,60.89
2019-06-27T19:38:57.201Z,61.80
2019-06-27T19:41:28.293Z,62.36
2019-06-27T19:43:59.531Z,63.28
2019-06-27T19:46:30.965Z,63.36
2019-06-27T19:49:02.098Z,63.78
2019-06-27T19:51:33.503Z,64.67
2019-06-27T19:54:04.836Z,64.94
2019-06-27T19:56:36.455Z,65.63
2019-06-27T19:59:07.635Z,65.48
2019-06-27T20:01:38.894Z,65.91
2019-06-27T20:04:10.235Z,66.63
2019-06-27T20:06:41.136Z,66.49
2019-06-27T20:09:12.146Z,67.41
2019-06-27T20:11:43.225Z,67.10
2019-06-27T20:14:14.385Z,67.72
2019-06-27T20:16:45.426Z,67.62
2019-06-27T20:19:16.730Z,67.80
2019-06-27T20:21:47.977Z,68.19
2019-06-27T20:24:21.756Z,68.28
2019-06-27T20:26:51.792Z,68.96
2019-06-27T20:29:22.873Z,68.99
2019-06-27T20:31:56.282Z,69.10
2019-06-27T20:34:27.377Z,69.60
2019-06-27T20:36:58.599Z,69.71
2019-06-27T20:39:29.712Z,69.51
2019-06-27T20:42:00.785Z,69.15
2019-06-27T20:44:31.796Z,69.56
2019-06-27T20:47:02.876Z,69.94
2019-06-27T20:49:33.754Z,70.39
2019-06-27T20:52:05.131Z,70.32
2019-06-27T20:54:36.024Z,70.15
2019-06-27T20:57:07.355Z,70.41
2019-06-27T20:59:38.495Z,70.59
2019-06-27T21:02:09.743Z,70.25
2019-06-27T21:04:41.787Z,70.25
2019-06-27T21:07:12.685Z,70.99
2019-06-27T21:09:43.802Z,70.68
2019-06-27T21:12:15.196Z,70.71
2019-06-27T21:14:46.279Z,70.71
2019-06-27T21:17:17.495Z,70.99
2019-06-27T21:19:48.639Z,72.07
2019-06-27T21:22:19.676Z,72.07
2019-06-27T21:24:51.694Z,72.50
2019-06-27T21:27:22.803Z,72.87
2019-06-27T21:29:53.768Z,73.60
2019-06-27T21:32:31.490Z,73.32
2019-06-27T21:34:57.620Z,72.94
2019-06-27T21:37:28.650Z,73.77
2019-06-27T21:39:59.586Z,73.71
2019-06-27T21:42:30.834Z,73.65
2019-06-27T21:45:02.109Z,74.00
2019-06-27T21:47:34.266Z,74.02
2019-06-27T21:50:05.407Z,74.30
2019-06-27T21:52:36.380Z,74.40
2019-06-27T21:55:07.688Z,75.00
2019-06-27T21:57:38.863Z,74.48
2019-06-27T22:00:10.444Z,74.81
2019-06-27T22:02:43.482Z,74.49
2019-06-27T22:05:15.496Z,74.71
2019-06-27T22:07:46.757Z,75.00
2019-06-27T22:10:18.047Z,75.49
2019-06-27T22:12:49.676Z,75.00
2019-06-27T22:15:20.880Z,75.56
2019-06-27T22:17:52.572Z,75.37
2019-06-27T22:20:24.009Z,75.79
2019-06-27T22:22:55.682Z,76.04
2019-06-27T22:25:39.896Z,76.04
2019-06-27T22:28:00.234Z,75.84
2019-06-27T22:30:31.507Z,75.80
2019-06-27T22:33:02.926Z,76.80
2019-06-27T22:35:34.192Z,76.84
2019-06-27T22:38:22.927Z,77.19
2019-06-27T22:41:11.272Z,77.74
2019-06-27T22:44:00.111Z,78.00
2019-06-27T22:46:48.891Z,77.79
2019-06-27T22:49:18.919Z,77.41
2019-06-27T22:52:27.353Z,77.26
2019-06-27T22:55:00.199Z,77.52
2019-06-27T22:57:31.589Z,77.77
2019-06-27T23:00:03.606Z,77.31
2019-06-27T23:02:36.152Z,77.06
2019-06-27T23:05:07.754Z,76.71
2019-06-27T23:07:38.588Z,76.83
2019-06-27T23:10:09.808Z,76.61
2019-06-27T23:12:40.930Z,76.17
2019-06-27T23:15:12.108Z,76.08
2019-06-27T23:17:43.997Z,76.37
2019-06-27T23:20:15.469Z,75.91
2019-06-27T23:22:46.677Z,75.97
2019-06-27T23:25:17.802Z,75.94
2019-06-27T23:27:48.950Z,75.44
2019-06-27T23:30:20.528Z,75.17
2019-06-27T23:32:51.730Z,75.10
2019-06-27T23:35:23.064Z,74.76
2019-06-27T23:37:53.946Z,74.76
2019-06-27T23:40:24.964Z,74.59
2019-06-27T23:42:56.053Z,73.71
2019-06-27T23:45:27.179Z,73.77
2019-06-27T23:47:59.065Z,73.60
2019-06-27T23:50:30.246Z,73.50
2019-06-27T23:53:02.366Z,73.06
2019-06-27T23:55:33.516Z,73.30
2019-06-27T23:58:04.691Z,74.51
